sensor_id;sensor_type;location;lat;lon;timestamp;P1;durP1;ratioP1;P2;durP2;ratioP2
76023;SDS011;64719;52.124;6.226;2023-12-22T00:00:20;6.30;;;1.77;;
76023;SDS011;64719;52.124;6.226;2023-12-22T00:02:46;9.13;;;1.70;;
76023;SDS011;64719;52.124;6.226;2023-12-22T00:05:13;9.77;;;2.00;;
76023;SDS011;64719;52.124;6.226;2023-12-22T00:07:39;7.57;;;1.85;;
76023;SDS011;64719;52.124;6.226;2023-12-22T00:10:07;10.48;;;1.95;;
76023;SDS011;64719;52.124;6.226;2023-12-22T00:12:34;11.02;;;1.85;;
76023;SDS011;64719;52.124;6.226;2023-12-22T00:15:00;8.00;;;1.77;;
76023;SDS011;64719;52.124;6.226;2023-12-22T00:17:26;22.65;;;2.85;;
76023;SDS011;64719;52.124;6.226;2023-12-22T00:19:53;9.13;;;1.50;;
76023;SDS011;64719;52.124;6.226;2023-12-22T00:22:21;11.30;;;2.28;;
76023;SDS011;64719;52.124;6.226;2023-12-22T00:24:47;6.93;;;1.73;;
76023;SDS011;64719;52.124;6.226;2023-12-22T00:27:15;12.95;;;1.75;;
76023;SDS011;64719;52.124;6.226;2023-12-22T00:29:41;9.90;;;1.50;;
76023;SDS011;64719;52.124;6.226;2023-12-22T00:32:08;7.43;;;1.40;;
76023;SDS011;64719;52.124;6.226;2023-12-22T00:34:35;7.22;;;1.83;;
76023;SDS011;64719;52.124;6.226;2023-12-22T00:37:01;7.57;;;1.60;;
76023;SDS011;64719;52.124;6.226;2023-12-22T00:39:29;12.60;;;1.98;;
76023;SDS011;64719;52.124;6.226;2023-12-22T00:41:56;6.95;;;1.52;;
76023;SDS011;64719;52.124;6.226;2023-12-22T00:44:23;14.07;;;1.90;;
76023;SDS011;64719;52.124;6.226;2023-12-22T00:46:52;12.20;;;2.08;;
76023;SDS011;64719;52.124;6.226;2023-12-22T00:49:18;7.78;;;1.25;;
76023;SDS011;64719;52.124;6.226;2023-12-22T00:51:46;14.18;;;1.48;;
76023;SDS011;64719;52.124;6.226;2023-12-22T00:54:13;7.95;;;1.10;;
76023;SDS011;64719;52.124;6.226;2023-12-22T00:56:39;4.38;;;1.27;;
76023;SDS011;64719;52.124;6.226;2023-12-22T00:59:05;8.52;;;1.23;;
76023;SDS011;64719;52.124;6.226;2023-12-22T01:01:33;6.18;;;1.40;;
76023;SDS011;64719;52.124;6.226;2023-12-22T01:03:59;8.70;;;1.55;;
76023;SDS011;64719;52.124;6.226;2023-12-22T01:06:26;14.30;;;1.70;;
76023;SDS011;64719;52.124;6.226;2023-12-22T01:08:52;7.10;;;2.17;;
76023;SDS011;64719;52.124;6.226;2023-12-22T01:11:18;7.65;;;1.20;;
76023;SDS011;64719;52.124;6.226;2023-12-22T01:13:45;7.47;;;1.35;;
76023;SDS011;64719;52.124;6.226;2023-12-22T01:16:11;8.50;;;1.70;;
76023;SDS011;64719;52.124;6.226;2023-12-22T01:18:39;8.43;;;1.48;;
76023;SDS011;64719;52.124;6.226;2023-12-22T01:21:07;6.93;;;1.25;;
76023;SDS011;64719;52.124;6.226;2023-12-22T01:23:34;6.97;;;1.00;;
76023;SDS011;64719;52.124;6.226;2023-12-22T01:26:00;4.70;;;1.10;;
76023;SDS011;64719;52.124;6.226;2023-12-22T01:28:26;6.60;;;1.25;;
76023;SDS011;64719;52.124;6.226;2023-12-22T01:30:53;5.68;;;0.93;;
76023;SDS011;64719;52.124;6.226;2023-12-22T01:33:19;6.07;;;1.27;;
76023;SDS011;64719;52.124;6.226;2023-12-22T01:35:47;10.35;;;3.75;;
76023;SDS011;64719;52.124;6.226;2023-12-22T01:38:13;3.88;;;0.82;;
76023;SDS011;64719;52.124;6.226;2023-12-22T01:40:39;12.43;;;1.23;;
76023;SDS011;64719;52.124;6.226;2023-12-22T01:43:06;5.68;;;1.08;;
76023;SDS011;64719;52.124;6.226;2023-12-22T01:45:32;5.13;;;0.68;;
76023;SDS011;64719;52.124;6.226;2023-12-22T01:47:58;7.00;;;0.85;;
76023;SDS011;64719;52.124;6.226;2023-12-22T01:50:25;5.50;;;1.10;;
76023;SDS011;64719;52.124;6.226;2023-12-22T01:52:52;3.10;;;0.85;;
76023;SDS011;64719;52.124;6.226;2023-12-22T01:55:19;6.40;;;1.17;;
76023;SDS011;64719;52.124;6.226;2023-12-22T01:57:45;8.07;;;1.52;;
76023;SDS011;64719;52.124;6.226;2023-12-22T02:00:13;7.93;;;1.38;;
76023;SDS011;64719;52.124;6.226;2023-12-22T02:02:38;7.30;;;1.60;;
76023;SDS011;64719;52.124;6.226;2023-12-22T02:05:05;4.97;;;1.33;;
76023;SDS011;64719;52.124;6.226;2023-12-22T02:07:34;6.53;;;1.10;;
76023;SDS011;64719;52.124;6.226;2023-12-22T02:10:02;3.90;;;0.85;;
76023;SDS011;64719;52.124;6.226;2023-12-22T02:12:28;9.75;;;1.33;;
76023;SDS011;64719;52.124;6.226;2023-12-22T02:14:55;5.05;;;1.08;;
76023;SDS011;64719;52.124;6.226;2023-12-22T02:17:22;9.13;;;1.30;;
76023;SDS011;64719;52.124;6.226;2023-12-22T02:19:50;3.60;;;0.80;;
76023;SDS011;64719;52.124;6.226;2023-12-22T02:22:16;4.32;;;1.25;;
76023;SDS011;64719;52.124;6.226;2023-12-22T02:24:44;2.83;;;0.70;;
76023;SDS011;64719;52.124;6.226;2023-12-22T02:27:14;2.63;;;0.93;;
76023;SDS011;64719;52.124;6.226;2023-12-22T02:29:43;3.20;;;0.90;;
76023;SDS011;64719;52.124;6.226;2023-12-22T02:32:12;4.80;;;0.88;;
76023;SDS011;64719;52.124;6.226;2023-12-22T02:34:40;2.17;;;0.60;;
76023;SDS011;64719;52.124;6.226;2023-12-22T02:37:07;4.72;;;0.95;;
76023;SDS011;64719;52.124;6.226;2023-12-22T02:39:34;5.93;;;0.80;;
76023;SDS011;64719;52.124;6.226;2023-12-22T02:42:02;1.60;;;0.50;;
76023;SDS011;64719;52.124;6.226;2023-12-22T02:44:29;2.78;;;0.77;;
76023;SDS011;64719;52.124;6.226;2023-12-22T02:46:56;3.22;;;0.60;;
76023;SDS011;64719;52.124;6.226;2023-12-22T02:49:22;5.50;;;0.80;;
76023;SDS011;64719;52.124;6.226;2023-12-22T02:51:48;2.80;;;0.70;;
76023;SDS011;64719;52.124;6.226;2023-12-22T02:54:15;2.05;;;0.40;;
76023;SDS011;64719;52.124;6.226;2023-12-22T02:56:41;3.78;;;0.82;;
76023;SDS011;64719;52.124;6.226;2023-12-22T02:59:10;3.42;;;0.90;;
76023;SDS011;64719;52.124;6.226;2023-12-22T03:01:36;5.25;;;1.20;;
76023;SDS011;64719;52.124;6.226;2023-12-22T03:04:02;3.92;;;1.00;;
76023;SDS011;64719;52.124;6.226;2023-12-22T03:06:29;4.47;;;1.33;;
76023;SDS011;64719;52.124;6.226;2023-12-22T03:08:55;5.25;;;0.90;;
76023;SDS011;64719;52.124;6.226;2023-12-22T03:11:21;5.18;;;1.30;;
76023;SDS011;64719;52.124;6.226;2023-12-22T03:13:48;4.10;;;0.90;;
76023;SDS011;64719;52.124;6.226;2023-12-22T03:16:15;4.55;;;1.10;;
76023;SDS011;64719;52.124;6.226;2023-12-22T03:18:41;5.57;;;1.75;;
76023;SDS011;64719;52.124;6.226;2023-12-22T03:21:08;8.20;;;1.80;;
76023;SDS011;64719;52.124;6.226;2023-12-22T03:23:41;7.03;;;1.20;;
76023;SDS011;64719;52.124;6.226;2023-12-22T03:26:08;5.72;;;1.00;;
76023;SDS011;64719;52.124;6.226;2023-12-22T03:28:34;10.43;;;1.00;;
76023;SDS011;64719;52.124;6.226;2023-12-22T03:31:00;5.22;;;0.95;;
76023;SDS011;64719;52.124;6.226;2023-12-22T03:33:28;3.00;;;0.80;;
76023;SDS011;64719;52.124;6.226;2023-12-22T03:35:54;7.20;;;1.17;;
76023;SDS011;64719;52.124;6.226;2023-12-22T03:38:20;6.38;;;0.98;;
76023;SDS011;64719;52.124;6.226;2023-12-22T03:40:47;8.55;;;1.45;;
76023;SDS011;64719;52.124;6.226;2023-12-22T03:43:13;4.68;;;1.13;;
76023;SDS011;64719;52.124;6.226;2023-12-22T03:45:39;5.20;;;1.00;;
76023;SDS011;64719;52.124;6.226;2023-12-22T03:48:06;6.13;;;1.25;;
76023;SDS011;64719;52.124;6.226;2023-12-22T03:50:34;4.40;;;1.20;;
76023;SDS011;64719;52.124;6.226;2023-12-22T03:53:00;3.33;;;1.35;;
76023;SDS011;64719;52.124;6.226;2023-12-22T03:55:26;4.10;;;0.90;;
76023;SDS011;64719;52.124;6.226;2023-12-22T03:57:53;4.32;;;0.93;;
76023;SDS011;64719;52.124;6.226;2023-12-22T04:00:19;5.72;;;1.30;;
76023;SDS011;64719;52.124;6.226;2023-12-22T04:02:45;4.75;;;0.80;;
76023;SDS011;64719;52.124;6.226;2023-12-22T04:05:12;7.00;;;1.35;;
76023;SDS011;64719;52.124;6.226;2023-12-22T04:07:39;9.88;;;1.33;;
76023;SDS011;64719;52.124;6.226;2023-12-22T04:10:06;3.10;;;0.60;;
76023;SDS011;64719;52.124;6.226;2023-12-22T04:12:33;4.35;;;0.90;;
76023;SDS011;64719;52.124;6.226;2023-12-22T04:14:59;5.93;;;1.38;;
76023;SDS011;64719;52.124;6.226;2023-12-22T04:17:25;4.43;;;1.00;;
76023;SDS011;64719;52.124;6.226;2023-12-22T04:19:51;4.03;;;1.15;;
76023;SDS011;64719;52.124;6.226;2023-12-22T04:22:18;5.90;;;1.55;;
76023;SDS011;64719;52.124;6.226;2023-12-22T04:24:46;6.50;;;0.95;;
76023;SDS011;64719;52.124;6.226;2023-12-22T04:27:12;6.35;;;1.05;;
76023;SDS011;64719;52.124;6.226;2023-12-22T04:29:38;5.78;;;1.30;;
76023;SDS011;64719;52.124;6.226;2023-12-22T04:32:05;5.93;;;1.13;;
76023;SDS011;64719;52.124;6.226;2023-12-22T04:34:31;4.68;;;1.50;;
76023;SDS011;64719;52.124;6.226;2023-12-22T04:36:57;7.47;;;1.02;;
76023;SDS011;64719;52.124;6.226;2023-12-22T04:39:24;4.85;;;1.08;;
76023;SDS011;64719;52.124;6.226;2023-12-22T04:41:51;4.80;;;1.00;;
76023;SDS011;64719;52.124;6.226;2023-12-22T04:44:18;2.78;;;1.00;;
76023;SDS011;64719;52.124;6.226;2023-12-22T04:46:44;3.90;;;0.70;;
76023;SDS011;64719;52.124;6.226;2023-12-22T04:49:10;4.20;;;0.90;;
76023;SDS011;64719;52.124;6.226;2023-12-22T04:51:37;6.07;;;2.15;;
76023;SDS011;64719;52.124;6.226;2023-12-22T04:54:03;5.65;;;1.20;;
76023;SDS011;64719;52.124;6.226;2023-12-22T04:56:29;9.00;;;2.30;;
76023;SDS011;64719;52.124;6.226;2023-12-22T04:58:57;8.88;;;1.40;;
76023;SDS011;64719;52.124;6.226;2023-12-22T05:01:23;6.60;;;1.75;;
76023;SDS011;64719;52.124;6.226;2023-12-22T05:03:49;7.60;;;1.45;;
76023;SDS011;64719;52.124;6.226;2023-12-22T05:06:16;10.05;;;1.48;;
76023;SDS011;64719;52.124;6.226;2023-12-22T05:08:42;3.05;;;1.20;;
76023;SDS011;64719;52.124;6.226;2023-12-22T05:11:09;12.55;;;2.22;;
76023;SDS011;64719;52.124;6.226;2023-12-22T05:13:35;13.48;;;1.55;;
76023;SDS011;64719;52.124;6.226;2023-12-22T05:16:03;9.82;;;1.35;;
76023;SDS011;64719;52.124;6.226;2023-12-22T05:18:29;8.18;;;1.80;;
76023;SDS011;64719;52.124;6.226;2023-12-22T05:20:56;5.78;;;1.70;;
76023;SDS011;64719;52.124;6.226;2023-12-22T05:23:22;5.88;;;1.65;;
76023;SDS011;64719;52.124;6.226;2023-12-22T05:25:48;8.82;;;1.70;;
76023;SDS011;64719;52.124;6.226;2023-12-22T05:28:14;9.63;;;1.38;;
76023;SDS011;64719;52.124;6.226;2023-12-22T05:30:41;7.90;;;1.50;;
76023;SDS011;64719;52.124;6.226;2023-12-22T05:33:08;6.55;;;1.48;;
76023;SDS011;64719;52.124;6.226;2023-12-22T05:35:35;8.88;;;1.00;;
76023;SDS011;64719;52.124;6.226;2023-12-22T05:38:01;4.43;;;1.00;;
76023;SDS011;64719;52.124;6.226;2023-12-22T05:40:27;8.82;;;1.77;;
76023;SDS011;64719;52.124;6.226;2023-12-22T05:42:54;7.57;;;1.60;;
76023;SDS011;64719;52.124;6.226;2023-12-22T05:45:20;7.93;;;1.58;;
76023;SDS011;64719;52.124;6.226;2023-12-22T05:47:46;11.63;;;1.98;;
76023;SDS011;64719;52.124;6.226;2023-12-22T05:50:14;9.75;;;1.52;;
76023;SDS011;64719;52.124;6.226;2023-12-22T05:52:41;7.28;;;1.77;;
76023;SDS011;64719;52.124;6.226;2023-12-22T05:55:09;8.40;;;1.45;;
76023;SDS011;64719;52.124;6.226;2023-12-22T05:57:34;12.60;;;2.03;;
76023;SDS011;64719;52.124;6.226;2023-12-22T06:00:00;7.65;;;1.55;;
76023;SDS011;64719;52.124;6.226;2023-12-22T06:02:29;16.77;;;2.15;;
76023;SDS011;64719;52.124;6.226;2023-12-22T06:04:56;12.93;;;2.22;;
76023;SDS011;64719;52.124;6.226;2023-12-22T06:07:23;9.70;;;1.52;;
76023;SDS011;64719;52.124;6.226;2023-12-22T06:09:49;11.15;;;2.05;;
76023;SDS011;64719;52.124;6.226;2023-12-22T06:12:16;15.00;;;2.53;;
76023;SDS011;64719;52.124;6.226;2023-12-22T06:14:42;6.53;;;2.08;;
76023;SDS011;64719;52.124;6.226;2023-12-22T06:17:08;19.35;;;2.13;;
76023;SDS011;64719;52.124;6.226;2023-12-22T06:19:35;12.25;;;2.28;;
76023;SDS011;64719;52.124;6.226;2023-12-22T06:22:01;14.73;;;2.88;;
76023;SDS011;64719;52.124;6.226;2023-12-22T06:24:29;13.98;;;2.70;;
76023;SDS011;64719;52.124;6.226;2023-12-22T06:26:55;15.07;;;2.30;;
76023;SDS011;64719;52.124;6.226;2023-12-22T06:29:20;11.17;;;1.87;;
76023;SDS011;64719;52.124;6.226;2023-12-22T06:31:48;13.43;;;1.67;;
76023;SDS011;64719;52.124;6.226;2023-12-22T06:34:15;8.98;;;2.13;;
76023;SDS011;64719;52.124;6.226;2023-12-22T06:36:42;12.15;;;2.40;;
76023;SDS011;64719;52.124;6.226;2023-12-22T06:39:08;8.85;;;1.42;;
76023;SDS011;64719;52.124;6.226;2023-12-22T06:41:36;3.78;;;1.10;;
76023;SDS011;64719;52.124;6.226;2023-12-22T06:44:02;7.53;;;1.92;;
76023;SDS011;64719;52.124;6.226;2023-12-22T06:46:29;4.88;;;1.05;;
76023;SDS011;64719;52.124;6.226;2023-12-22T06:48:56;4.07;;;1.10;;
76023;SDS011;64719;52.124;6.226;2023-12-22T06:51:23;3.20;;;0.80;;
76023;SDS011;64719;52.124;6.226;2023-12-22T06:53:50;7.70;;;1.00;;
76023;SDS011;64719;52.124;6.226;2023-12-22T06:56:17;3.08;;;1.25;;
76023;SDS011;64719;52.124;6.226;2023-12-22T06:58:44;5.70;;;1.17;;
76023;SDS011;64719;52.124;6.226;2023-12-22T07:03:38;5.07;;;1.27;;
76023;SDS011;64719;52.124;6.226;2023-12-22T07:06:05;4.70;;;1.77;;
76023;SDS011;64719;52.124;6.226;2023-12-22T07:08:31;7.10;;;1.88;;
76023;SDS011;64719;52.124;6.226;2023-12-22T07:10:58;5.00;;;1.58;;
76023;SDS011;64719;52.124;6.226;2023-12-22T07:13:24;4.57;;;1.23;;
76023;SDS011;64719;52.124;6.226;2023-12-22T07:15:53;4.53;;;1.33;;
76023;SDS011;64719;52.124;6.226;2023-12-22T07:18:19;4.15;;;1.38;;
76023;SDS011;64719;52.124;6.226;2023-12-22T07:20:45;4.38;;;1.20;;
76023;SDS011;64719;52.124;6.226;2023-12-22T07:23:11;9.48;;;1.45;;
76023;SDS011;64719;52.124;6.226;2023-12-22T07:25:38;8.65;;;1.50;;
76023;SDS011;64719;52.124;6.226;2023-12-22T07:28:05;8.13;;;1.77;;
76023;SDS011;64719;52.124;6.226;2023-12-22T07:30:31;2.95;;;1.48;;
76023;SDS011;64719;52.124;6.226;2023-12-22T07:32:59;7.63;;;1.55;;
76023;SDS011;64719;52.124;6.226;2023-12-22T07:35:25;4.88;;;1.52;;
76023;SDS011;64719;52.124;6.226;2023-12-22T07:37:51;9.80;;;1.40;;
76023;SDS011;64719;52.124;6.226;2023-12-22T07:40:18;7.60;;;1.83;;
76023;SDS011;64719;52.124;6.226;2023-12-22T07:42:45;10.85;;;2.42;;
76023;SDS011;64719;52.124;6.226;2023-12-22T07:45:11;6.50;;;1.70;;
76023;SDS011;64719;52.124;6.226;2023-12-22T07:47:38;9.40;;;1.50;;
76023;SDS011;64719;52.124;6.226;2023-12-22T07:50:06;7.05;;;1.70;;
76023;SDS011;64719;52.124;6.226;2023-12-22T07:52:33;9.85;;;1.77;;
76023;SDS011;64719;52.124;6.226;2023-12-22T07:55:02;12.73;;;1.85;;
76023;SDS011;64719;52.124;6.226;2023-12-22T07:57:29;9.82;;;1.88;;
76023;SDS011;64719;52.124;6.226;2023-12-22T07:59:55;12.55;;;2.05;;
76023;SDS011;64719;52.124;6.226;2023-12-22T08:02:21;9.75;;;2.55;;
76023;SDS011;64719;52.124;6.226;2023-12-22T08:04:48;14.00;;;2.08;;
76023;SDS011;64719;52.124;6.226;2023-12-22T08:07:16;9.20;;;2.10;;
76023;SDS011;64719;52.124;6.226;2023-12-22T08:09:43;9.32;;;2.80;;
76023;SDS011;64719;52.124;6.226;2023-12-22T08:12:09;19.08;;;2.78;;
76023;SDS011;64719;52.124;6.226;2023-12-22T08:14:35;15.70;;;3.00;;
76023;SDS011;64719;52.124;6.226;2023-12-22T08:17:02;16.42;;;3.83;;
76023;SDS011;64719;52.124;6.226;2023-12-22T08:19:28;12.93;;;2.78;;
76023;SDS011;64719;52.124;6.226;2023-12-22T08:21:54;14.10;;;3.00;;
76023;SDS011;64719;52.124;6.226;2023-12-22T08:24:22;15.13;;;2.90;;
76023;SDS011;64719;52.124;6.226;2023-12-22T08:26:48;16.90;;;2.88;;
76023;SDS011;64719;52.124;6.226;2023-12-22T08:29:15;16.30;;;2.60;;
76023;SDS011;64719;52.124;6.226;2023-12-22T08:31:41;14.30;;;2.65;;
76023;SDS011;64719;52.124;6.226;2023-12-22T08:34:08;11.88;;;3.28;;
76023;SDS011;64719;52.124;6.226;2023-12-22T08:36:35;17.42;;;3.33;;
76023;SDS011;64719;52.124;6.226;2023-12-22T08:39:01;18.13;;;2.78;;
76023;SDS011;64719;52.124;6.226;2023-12-22T08:41:29;15.45;;;2.80;;
76023;SDS011;64719;52.124;6.226;2023-12-22T08:44:01;20.02;;;3.15;;
76023;SDS011;64719;52.124;6.226;2023-12-22T08:46:27;11.75;;;2.33;;
76023;SDS011;64719;52.124;6.226;2023-12-22T08:48:53;11.02;;;1.95;;
76023;SDS011;64719;52.124;6.226;2023-12-22T08:51:20;9.95;;;1.80;;
76023;SDS011;64719;52.124;6.226;2023-12-22T08:53:46;9.98;;;2.10;;
76023;SDS011;64719;52.124;6.226;2023-12-22T08:56:12;17.42;;;2.63;;
76023;SDS011;64719;52.124;6.226;2023-12-22T08:58:41;11.30;;;2.95;;
76023;SDS011;64719;52.124;6.226;2023-12-22T09:01:07;15.98;;;2.90;;
76023;SDS011;64719;52.124;6.226;2023-12-22T09:03:33;14.73;;;2.08;;
76023;SDS011;64719;52.124;6.226;2023-12-22T09:06:00;19.38;;;2.97;;
76023;SDS011;64719;52.124;6.226;2023-12-22T09:08:27;11.68;;;2.55;;
76023;SDS011;64719;52.124;6.226;2023-12-22T09:10:53;8.10;;;1.98;;
76023;SDS011;64719;52.124;6.226;2023-12-22T09:13:19;14.88;;;2.83;;
76023;SDS011;64719;52.124;6.226;2023-12-22T09:15:47;11.10;;;2.55;;
76023;SDS011;64719;52.124;6.226;2023-12-22T09:18:14;13.93;;;2.42;;
76023;SDS011;64719;52.124;6.226;2023-12-22T09:20:40;11.32;;;1.77;;
76023;SDS011;64719;52.124;6.226;2023-12-22T09:23:06;10.88;;;2.13;;
76023;SDS011;64719;52.124;6.226;2023-12-22T09:25:35;8.20;;;1.63;;
76023;SDS011;64719;52.124;6.226;2023-12-22T09:28:01;9.55;;;2.45;;
76023;SDS011;64719;52.124;6.226;2023-12-22T09:30:27;7.47;;;2.03;;
76023;SDS011;64719;52.124;6.226;2023-12-22T09:32:55;10.95;;;2.00;;
76023;SDS011;64719;52.124;6.226;2023-12-22T09:35:21;17.10;;;2.53;;
76023;SDS011;64719;52.124;6.226;2023-12-22T09:37:49;13.73;;;3.17;;
76023;SDS011;64719;52.124;6.226;2023-12-22T09:40:16;18.52;;;3.63;;
76023;SDS011;64719;52.124;6.226;2023-12-22T09:42:42;15.45;;;3.45;;
76023;SDS011;64719;52.124;6.226;2023-12-22T09:45:10;15.38;;;3.03;;
76023;SDS011;64719;52.124;6.226;2023-12-22T09:47:37;8.98;;;2.67;;
76023;SDS011;64719;52.124;6.226;2023-12-22T09:50:06;14.80;;;3.05;;
76023;SDS011;64719;52.124;6.226;2023-12-22T09:52:33;12.07;;;3.03;;
76023;SDS011;64719;52.124;6.226;2023-12-22T09:55:01;13.07;;;3.10;;
76023;SDS011;64719;52.124;6.226;2023-12-22T09:57:28;14.60;;;2.60;;
76023;SDS011;64719;52.124;6.226;2023-12-22T09:59:56;13.70;;;3.47;;
76023;SDS011;64719;52.124;6.226;2023-12-22T10:02:23;15.68;;;2.95;;
76023;SDS011;64719;52.124;6.226;2023-12-22T10:04:49;11.52;;;2.55;;
76023;SDS011;64719;52.124;6.226;2023-12-22T10:07:17;13.82;;;2.58;;
76023;SDS011;64719;52.124;6.226;2023-12-22T10:09:44;15.13;;;2.80;;
76023;SDS011;64719;52.124;6.226;2023-12-22T10:12:12;13.75;;;2.72;;
76023;SDS011;64719;52.124;6.226;2023-12-22T10:14:39;12.32;;;2.28;;
76023;SDS011;64719;52.124;6.226;2023-12-22T10:17:06;10.80;;;2.50;;
76023;SDS011;64719;52.124;6.226;2023-12-22T10:19:32;11.13;;;2.63;;
76023;SDS011;64719;52.124;6.226;2023-12-22T10:21:59;6.05;;;2.10;;
76023;SDS011;64719;52.124;6.226;2023-12-22T10:24:39;11.93;;;3.13;;
76023;SDS011;64719;52.124;6.226;2023-12-22T10:27:07;7.15;;;1.73;;
76023;SDS011;64719;52.124;6.226;2023-12-22T10:29:33;9.48;;;1.85;;
76023;SDS011;64719;52.124;6.226;2023-12-22T10:32:00;8.63;;;2.78;;
76023;SDS011;64719;52.124;6.226;2023-12-22T10:34:26;13.23;;;1.92;;
76023;SDS011;64719;52.124;6.226;2023-12-22T10:36:53;6.38;;;2.40;;
76023;SDS011;64719;52.124;6.226;2023-12-22T10:39:19;8.07;;;1.70;;
76023;SDS011;64719;52.124;6.226;2023-12-22T10:41:47;3.20;;;0.98;;
76023;SDS011;64719;52.124;6.226;2023-12-22T10:44:14;5.85;;;1.25;;
76023;SDS011;64719;52.124;6.226;2023-12-22T10:46:42;2.42;;;1.02;;
76023;SDS011;64719;52.124;6.226;2023-12-22T10:49:08;4.97;;;1.35;;
76023;SDS011;64719;52.124;6.226;2023-12-22T10:51:35;4.63;;;1.73;;
76023;SDS011;64719;52.124;6.226;2023-12-22T10:54:01;1.88;;;0.90;;
76023;SDS011;64719;52.124;6.226;2023-12-22T10:56:30;5.32;;;1.10;;
76023;SDS011;64719;52.124;6.226;2023-12-22T10:58:57;3.38;;;1.60;;
76023;SDS011;64719;52.124;6.226;2023-12-22T11:01:24;6.50;;;2.22;;
76023;SDS011;64719;52.124;6.226;2023-12-22T11:03:53;5.03;;;1.42;;
76023;SDS011;64719;52.124;6.226;2023-12-22T11:06:23;4.57;;;1.92;;
76023;SDS011;64719;52.124;6.226;2023-12-22T11:08:51;2.78;;;1.20;;
76023;SDS011;64719;52.124;6.226;2023-12-22T11:11:20;6.68;;;1.50;;
76023;SDS011;64719;52.124;6.226;2023-12-22T11:16:14;4.05;;;1.50;;
76023;SDS011;64719;52.124;6.226;2023-12-22T11:18:41;4.85;;;1.92;;
76023;SDS011;64719;52.124;6.226;2023-12-22T11:21:08;6.20;;;1.95;;
76023;SDS011;64719;52.124;6.226;2023-12-22T11:23:36;14.20;;;1.70;;
76023;SDS011;64719;52.124;6.226;2023-12-22T11:26:03;9.02;;;2.53;;
76023;SDS011;64719;52.124;6.226;2023-12-22T11:28:31;7.22;;;2.10;;
76023;SDS011;64719;52.124;6.226;2023-12-22T11:30:57;4.30;;;1.60;;
76023;SDS011;64719;52.124;6.226;2023-12-22T11:33:26;10.40;;;2.00;;
76023;SDS011;64719;52.124;6.226;2023-12-22T11:35:55;6.45;;;1.83;;
76023;SDS011;64719;52.124;6.226;2023-12-22T11:38:22;2.83;;;1.17;;
76023;SDS011;64719;52.124;6.226;2023-12-22T11:40:48;7.05;;;1.73;;
76023;SDS011;64719;52.124;6.226;2023-12-22T11:43:16;5.18;;;2.15;;
76023;SDS011;64719;52.124;6.226;2023-12-22T11:45:43;8.50;;;1.77;;
76023;SDS011;64719;52.124;6.226;2023-12-22T11:48:10;6.40;;;1.40;;
76023;SDS011;64719;52.124;6.226;2023-12-22T11:50:38;6.68;;;1.23;;
76023;SDS011;64719;52.124;6.226;2023-12-22T11:53:17;4.60;;;1.48;;
76023;SDS011;64719;52.124;6.226;2023-12-22T11:55:56;4.35;;;1.17;;
76023;SDS011;64719;52.124;6.226;2023-12-22T11:58:35;4.30;;;1.65;;
76023;SDS011;64719;52.124;6.226;2023-12-22T12:01:02;8.15;;;1.70;;
76023;SDS011;64719;52.124;6.226;2023-12-22T12:03:29;13.82;;;1.88;;
76023;SDS011;64719;52.124;6.226;2023-12-22T12:06:11;10.77;;;2.15;;
76023;SDS011;64719;52.124;6.226;2023-12-22T12:08:37;3.80;;;1.17;;
76023;SDS011;64719;52.124;6.226;2023-12-22T12:11:04;5.57;;;0.98;;
76023;SDS011;64719;52.124;6.226;2023-12-22T12:13:32;6.82;;;1.52;;
76023;SDS011;64719;52.124;6.226;2023-12-22T12:15:59;6.75;;;1.13;;
76023;SDS011;64719;52.124;6.226;2023-12-22T12:18:27;2.78;;;1.42;;
76023;SDS011;64719;52.124;6.226;2023-12-22T12:20:53;4.43;;;1.73;;
76023;SDS011;64719;52.124;6.226;2023-12-22T12:23:21;2.70;;;1.10;;
76023;SDS011;64719;52.124;6.226;2023-12-22T12:25:49;5.57;;;1.30;;
76023;SDS011;64719;52.124;6.226;2023-12-22T12:28:15;6.95;;;1.73;;
76023;SDS011;64719;52.124;6.226;2023-12-22T12:30:43;4.03;;;2.00;;
76023;SDS011;64719;52.124;6.226;2023-12-22T12:33:11;2.95;;;1.35;;
76023;SDS011;64719;52.124;6.226;2023-12-22T12:35:38;7.68;;;1.92;;
76023;SDS011;64719;52.124;6.226;2023-12-22T12:38:04;5.75;;;1.80;;
76023;SDS011;64719;52.124;6.226;2023-12-22T12:40:32;7.38;;;2.03;;
76023;SDS011;64719;52.124;6.226;2023-12-22T12:43:00;8.90;;;2.08;;
76023;SDS011;64719;52.124;6.226;2023-12-22T12:45:27;8.77;;;1.70;;
76023;SDS011;64719;52.124;6.226;2023-12-22T12:47:56;12.43;;;2.30;;
76023;SDS011;64719;52.124;6.226;2023-12-22T12:50:23;13.07;;;2.53;;
76023;SDS011;64719;52.124;6.226;2023-12-22T12:52:49;8.90;;;1.90;;
76023;SDS011;64719;52.124;6.226;2023-12-22T12:55:16;7.85;;;2.25;;
76023;SDS011;64719;52.124;6.226;2023-12-22T12:57:44;7.10;;;1.52;;
76023;SDS011;64719;52.124;6.226;2023-12-22T13:00:11;5.28;;;1.35;;
76023;SDS011;64719;52.124;6.226;2023-12-22T13:02:38;4.95;;;1.73;;
76023;SDS011;64719;52.124;6.226;2023-12-22T13:05:04;5.55;;;2.05;;
76023;SDS011;64719;52.124;6.226;2023-12-22T13:07:31;9.15;;;2.10;;
76023;SDS011;64719;52.124;6.226;2023-12-22T13:09:58;6.25;;;1.98;;
76023;SDS011;64719;52.124;6.226;2023-12-22T13:12:25;7.68;;;1.90;;
76023;SDS011;64719;52.124;6.226;2023-12-22T13:14:53;7.72;;;2.22;;
76023;SDS011;64719;52.124;6.226;2023-12-22T13:17:20;4.68;;;1.67;;
76023;SDS011;64719;52.124;6.226;2023-12-22T13:19:46;7.55;;;1.90;;
76023;SDS011;64719;52.124;6.226;2023-12-22T13:22:12;8.50;;;1.95;;
76023;SDS011;64719;52.124;6.226;2023-12-22T13:24:39;8.20;;;2.42;;
76023;SDS011;64719;52.124;6.226;2023-12-22T13:27:05;7.45;;;1.83;;
76023;SDS011;64719;52.124;6.226;2023-12-22T13:32:19;4.35;;;1.02;;
76023;SDS011;64719;52.124;6.226;2023-12-22T13:37:12;4.93;;;1.65;;
76023;SDS011;64719;52.124;6.226;2023-12-22T13:39:38;7.00;;;1.73;;
76023;SDS011;64719;52.124;6.226;2023-12-22T13:42:04;9.30;;;1.70;;
76023;SDS011;64719;52.124;6.226;2023-12-22T13:44:31;9.48;;;1.80;;
76023;SDS011;64719;52.124;6.226;2023-12-22T13:47:01;7.25;;;1.48;;
76023;SDS011;64719;52.124;6.226;2023-12-22T13:49:33;7.28;;;1.50;;
76023;SDS011;64719;52.124;6.226;2023-12-22T13:52:00;5.25;;;1.17;;
76023;SDS011;64719;52.124;6.226;2023-12-22T13:54:31;8.90;;;1.90;;
76023;SDS011;64719;52.124;6.226;2023-12-22T13:56:58;12.05;;;1.42;;
76023;SDS011;64719;52.124;6.226;2023-12-22T13:59:30;8.77;;;1.50;;
76023;SDS011;64719;52.124;6.226;2023-12-22T14:01:56;5.13;;;1.35;;
76023;SDS011;64719;52.124;6.226;2023-12-22T14:04:22;4.38;;;1.35;;
76023;SDS011;64719;52.124;6.226;2023-12-22T14:06:50;9.82;;;1.40;;
76023;SDS011;64719;52.124;6.226;2023-12-22T14:09:16;8.32;;;2.35;;
76023;SDS011;64719;52.124;6.226;2023-12-22T14:11:47;7.10;;;1.70;;
76023;SDS011;64719;52.124;6.226;2023-12-22T14:14:13;8.10;;;1.92;;
76023;SDS011;64719;52.124;6.226;2023-12-22T14:16:40;8.45;;;1.92;;
76023;SDS011;64719;52.124;6.226;2023-12-22T14:19:06;7.43;;;1.42;;
76023;SDS011;64719;52.124;6.226;2023-12-22T14:21:32;12.32;;;1.65;;
76023;SDS011;64719;52.124;6.226;2023-12-22T14:24:00;7.00;;;1.40;;
76023;SDS011;64719;52.124;6.226;2023-12-22T14:26:26;5.65;;;1.05;;
76023;SDS011;64719;52.124;6.226;2023-12-22T14:28:53;6.22;;;1.30;;
76023;SDS011;64719;52.124;6.226;2023-12-22T14:31:19;8.80;;;1.83;;
76023;SDS011;64719;52.124;6.226;2023-12-22T14:33:46;6.50;;;1.40;;
76023;SDS011;64719;52.124;6.226;2023-12-22T14:36:13;8.40;;;2.00;;
76023;SDS011;64719;52.124;6.226;2023-12-22T14:38:39;5.53;;;1.38;;
76023;SDS011;64719;52.124;6.226;2023-12-22T14:41:07;7.43;;;1.65;;
76023;SDS011;64719;52.124;6.226;2023-12-22T14:43:33;7.05;;;1.63;;
76023;SDS011;64719;52.124;6.226;2023-12-22T14:46:00;10.07;;;2.17;;
76023;SDS011;64719;52.124;6.226;2023-12-22T14:48:26;5.20;;;1.65;;
76023;SDS011;64719;52.124;6.226;2023-12-22T14:50:52;6.05;;;1.15;;
76023;SDS011;64719;52.124;6.226;2023-12-22T14:53:19;5.75;;;1.48;;